Cuovddatmohkki, Norway

12:43 PM CEST on September 27, 2016 (GMT +0200)
Banak Air Base | | Change Station

Elev 26 ft 70.07 °N, 24.97 °E | Updated 23 minutes ago

Mostly Cloudy
Mostly Cloudy
54 °F
Feels Like 54 °F
N
12
Wind Variable Wind from South

Today
High -- | Low -- °F
--% Chance of Precip.
Yesterday
High -- | Low -- °F
Precip. -- in
Pressure 30.09 in
Visibility 6.2 miles
Clouds Few 1600 ft
Scattered Clouds 2900 ft
Mostly Cloudy 5700 ft
Dew Point 48 °F
Humidity 82%
Rainfall 0.00 in
Snow Depth Not available.
6:22 AM 6:01 PM
Waning Crescent, 12% visible
METAR ENNA 271020Z 17010KT 9999 FEW016 SCT029 BKN057 12/09 Q1019 RMK
Pressure 30.09 in
Visibility 6.2 miles
Clouds Few 1600 ft
Scattered Clouds 2900 ft
Mostly Cloudy 5700 ft
Dew Point 48 °F
Humidity 82%
Rainfall 0.00 in
Snow Depth Not available.
6:22 AM 6:01 PM
Waning Crescent, 12% visible
METAR ENNA 271020Z 17010KT 9999 FEW016 SCT029 BKN057 12/09 Q1019 RMK

10-Day Weather Forecast

×

Almanac

Astronomy

Sep. 27, 2016 Rise Set
Actual Time
Civil Twilight
Nautical Twilight
Astronomical Twilight
Moon
Length of Visible Light
Length of Day
Tomorrow will be .
, % of the Moon is Illuminated

Today's Extremes

Country Highs Country Lows

Community

WunderPhotos

Upload Photos

1,942,057 photos uploaded!

WunderBlog® & News

Nearby

Air Quality

  Air Quality AQ Index Pollutant
Not available.

Snow Depth

Station Depth Elevation

Earthquake Activity

City Distance Mag. Time & Date
Minimum magnitude displayed is 2.5.

Coastal Water Temperatures

Place Temperature

Stations

Nearby Weather Stations

Station Location Temp. Windchill Dew Point Humidity Wind Precip. Elev Updated Type